DAL28 KSAN-KOKC
Flight info
| Callsign | DAL28 |
|---|---|
| Flight time | N/A |
| Altitude | 35000 |
| Route | ZZOOO4 MTBAL CNERY BLH ANGRY KRRBY BOBYY PNH ROLLS CAMET3 |
| Aircraft | A359/H-SDE2E3GHIJ3J4J5LM1ORWXY/LB1D1 |
Departure
| Time | N/A |
|---|---|
| Airport | San Diego International Airport (KSAN) |
Arrival
| Time | 2026-04-24 20:00 |
|---|---|
| Airport | OKC Will Rogers World Airport (KOKC) |
| Time | Latitude | Longitude | Altitude | Speed | Heading |
|---|---|---|---|---|---|
| 2026-04-24 18:54 | 34.19343 | -108.01271 | 34847 ft | 592 kts | 83° |
| 2026-04-24 18:55 | 34.20656 | -107.86450 | 34849 ft | 591 kts | 83° |
| 2026-04-24 18:56 | 34.21520 | -107.76570 | 34849 ft | 592 kts | 83° |
| 2026-04-24 18:56 | 34.22378 | -107.66681 | 34852 ft | 592 kts | 83° |
| 2026-04-24 18:57 | 34.23229 | -107.56776 | 34854 ft | 593 kts | 83° |
| 2026-04-24 18:57 | 34.24072 | -107.46866 | 34852 ft | 593 kts | 83° |
| 2026-04-24 18:58 | 34.24908 | -107.36948 | 34862 ft | 593 kts | 83° |
| 2026-04-24 18:58 | 34.25731 | -107.27084 | 34850 ft | 594 kts | 83° |
| 2026-04-24 18:59 | 34.26550 | -107.17152 | 34862 ft | 594 kts | 83° |
| 2026-04-24 18:59 | 34.27363 | -107.07210 | 34888 ft | 594 kts | 83° |
| 2026-04-24 19:00 | 34.28168 | -106.97273 | 34895 ft | 594 kts | 83° |
| 2026-04-24 19:00 | 34.28965 | -106.87339 | 34848 ft | 594 kts | 84° |
| 2026-04-24 19:01 | 34.29753 | -106.77402 | 34845 ft | 594 kts | 84° |
| 2026-04-24 19:01 | 34.30533 | -106.67462 | 34851 ft | 593 kts | 84° |
| 2026-04-24 19:02 | 34.31175 | -106.59207 | 34872 ft | 593 kts | 84° |
| 2026-04-24 19:02 | 34.32067 | -106.47606 | 34882 ft | 592 kts | 84° |
| 2026-04-24 19:03 | 34.32821 | -106.37685 | 34883 ft | 592 kts | 84° |
| 2026-04-24 19:03 | 34.33568 | -106.27761 | 34892 ft | 593 kts | 84° |
| 2026-04-24 19:04 | 34.34308 | -106.17808 | 34892 ft | 594 kts | 84° |
| 2026-04-24 19:04 | 34.35041 | -106.07848 | 34891 ft | 594 kts | 84° |
| 2026-04-24 19:05 | 34.35766 | -105.97890 | 34904 ft | 594 kts | 84° |
| 2026-04-24 19:05 | 34.36484 | -105.87916 | 34890 ft | 595 kts | 84° |
| 2026-04-24 19:06 | 34.37913 | -105.78087 | 34881 ft | 592 kts | 73° |
| 2026-04-24 19:06 | 34.40012 | -105.68454 | 34880 ft | 592 kts | 72° |
| 2026-04-24 19:07 | 34.42225 | -105.58854 | 34877 ft | 592 kts | 71° |
| 2026-04-24 19:07 | 34.44063 | -105.50868 | 34868 ft | 592 kts | 71° |
| 2026-04-24 19:08 | 34.46612 | -105.39632 | 34846 ft | 592 kts | 72° |
| 2026-04-24 19:08 | 34.48775 | -105.30006 | 34845 ft | 592 kts | 72° |
| 2026-04-24 19:09 | 34.50927 | -105.20377 | 34822 ft | 592 kts | 72° |
| 2026-04-24 19:09 | 34.53073 | -105.10743 | 34823 ft | 592 kts | 72° |
| 2026-04-24 19:10 | 34.55197 | -105.01176 | 34803 ft | 592 kts | 72° |
| 2026-04-24 19:10 | 34.57344 | -104.91469 | 34787 ft | 592 kts | 72° |
| 2026-04-24 19:11 | 34.59452 | -104.81896 | 34795 ft | 590 kts | 72° |
| 2026-04-24 19:11 | 34.61561 | -104.72278 | 34803 ft | 589 kts | 72° |
| 2026-04-24 19:12 | 34.63662 | -104.62661 | 34804 ft | 589 kts | 72° |
| 2026-04-24 19:12 | 34.65757 | -104.53030 | 34808 ft | 589 kts | 72° |
| 2026-04-24 19:13 | 34.67504 | -104.44969 | 34785 ft | 589 kts | 72° |
| 2026-04-24 19:13 | 34.69921 | -104.33770 | 34739 ft | 589 kts | 72° |
| 2026-04-24 19:14 | 34.71991 | -104.24135 | 34731 ft | 589 kts | 72° |
| 2026-04-24 19:14 | 34.74053 | -104.14497 | 34727 ft | 588 kts | 72° |
| 2026-04-24 19:15 | 34.76104 | -104.04870 | 34739 ft | 588 kts | 72° |
| 2026-04-24 19:15 | 34.78147 | -103.95242 | 34739 ft | 588 kts | 72° |
| 2026-04-24 19:16 | 34.81197 | -103.80792 | 34746 ft | 587 kts | 72° |
| 2026-04-24 19:16 | 34.83214 | -103.71177 | 34754 ft | 586 kts | 73° |
| 2026-04-24 19:17 | 34.85224 | -103.61561 | 34769 ft | 586 kts | 73° |
| 2026-04-24 19:17 | 34.87227 | -103.51941 | 34768 ft | 586 kts | 73° |
| 2026-04-24 19:18 | 34.89221 | -103.42325 | 34799 ft | 585 kts | 73° |
| 2026-04-24 19:18 | 34.91206 | -103.32703 | 34820 ft | 585 kts | 73° |
| 2026-04-24 19:19 | 34.93170 | -103.23148 | 34820 ft | 585 kts | 73° |
| 2026-04-24 19:19 | 34.95139 | -103.13524 | 34823 ft | 585 kts | 73° |
| 2026-04-24 19:20 | 34.97102 | -103.03891 | 34827 ft | 586 kts | 73° |
| 2026-04-24 19:20 | 34.99057 | -102.94254 | 34834 ft | 586 kts | 73° |
| 2026-04-24 19:21 | 35.01004 | -102.84612 | 34835 ft | 586 kts | 73° |
| 2026-04-24 19:21 | 35.02945 | -102.74960 | 34838 ft | 586 kts | 73° |
| 2026-04-24 19:22 | 35.04875 | -102.65316 | 34847 ft | 585 kts | 73° |
| 2026-04-24 19:22 | 35.06798 | -102.55665 | 34860 ft | 585 kts | 73° |
| 2026-04-24 19:23 | 35.08714 | -102.46012 | 34870 ft | 585 kts | 74° |
| 2026-04-24 19:23 | 35.10621 | -102.36354 | 34876 ft | 585 kts | 74° |
| 2026-04-24 19:24 | 35.12518 | -102.26706 | 34863 ft | 584 kts | 74° |
| 2026-04-24 19:24 | 35.14408 | -102.17056 | 34814 ft | 583 kts | 74° |
| 2026-04-24 19:25 | 35.16283 | -102.07433 | 34835 ft | 582 kts | 74° |
| 2026-04-24 19:25 | 35.18148 | -101.97817 | 34869 ft | 581 kts | 75° |
| 2026-04-24 19:26 | 35.19993 | -101.88265 | 34901 ft | 581 kts | 75° |
| 2026-04-24 19:26 | 35.21840 | -101.78656 | 34924 ft | 581 kts | 75° |
| 2026-04-24 19:27 | 35.23385 | -101.70590 | 34924 ft | 581 kts | 75° |
| 2026-04-24 19:27 | 35.25818 | -101.59519 | 34923 ft | 579 kts | 71° |
| 2026-04-24 19:28 | 35.27657 | -101.51656 | 34890 ft | 578 kts | 72° |
| 2026-04-24 19:28 | 35.29844 | -101.42119 | 34859 ft | 578 kts | 72° |
| 2026-04-24 19:29 | 35.33055 | -101.27945 | 34811 ft | 578 kts | 72° |
| 2026-04-24 19:30 | 35.35188 | -101.18465 | 34833 ft | 577 kts | 72° |
| 2026-04-24 19:30 | 35.37312 | -101.08988 | 34850 ft | 577 kts | 72° |
| 2026-04-24 19:31 | 35.39427 | -100.99508 | 34863 ft | 577 kts | 72° |
| 2026-04-24 19:31 | 35.41537 | -100.90017 | 34867 ft | 577 kts | 72° |
| 2026-04-24 19:32 | 35.43638 | -100.80525 | 34853 ft | 577 kts | 72° |
| 2026-04-24 19:32 | 35.45732 | -100.71027 | 34840 ft | 577 kts | 73° |
| 2026-04-24 19:33 | 35.47820 | -100.61519 | 34821 ft | 577 kts | 73° |
| 2026-04-24 19:33 | 35.49878 | -100.52100 | 34803 ft | 558 kts | 73° |
| 2026-04-24 19:33 | 35.50863 | -100.47574 | 34802 ft | 542 kts | 73° |
| 2026-04-24 19:34 | 35.51829 | -100.43132 | 34808 ft | 537 kts | 73° |
| 2026-04-24 19:34 | 35.53754 | -100.34272 | 34807 ft | 537 kts | 73° |
| 2026-04-24 19:35 | 35.55669 | -100.25414 | 34805 ft | 537 kts | 73° |
| 2026-04-24 19:35 | 35.57579 | -100.16544 | 34801 ft | 537 kts | 73° |
| 2026-04-24 19:36 | 35.59493 | -100.07631 | 34532 ft | 550 kts | 73° |
| 2026-04-24 19:36 | 35.60474 | -100.03049 | 34379 ft | 557 kts | 73° |
| 2026-04-24 19:36 | 35.61456 | -99.98443 | 34147 ft | 557 kts | 73° |
| 2026-04-24 19:36 | 35.62437 | -99.93834 | 33908 ft | 557 kts | 73° |
| 2026-04-24 19:37 | 35.63416 | -99.89225 | 33655 ft | 557 kts | 73° |
| 2026-04-24 19:37 | 35.64393 | -99.84617 | 33410 ft | 557 kts | 73° |
| 2026-04-24 19:37 | 35.65366 | -99.80019 | 33122 ft | 556 kts | 74° |
| 2026-04-24 19:37 | 35.66322 | -99.75493 | 32795 ft | 549 kts | 74° |
| 2026-04-24 19:38 | 35.67264 | -99.71017 | 32045 ft | 533 kts | 74° |
| 2026-04-24 19:38 | 35.68177 | -99.66671 | 31420 ft | 516 kts | 74° |
| 2026-04-24 19:38 | 35.69074 | -99.62402 | 30885 ft | 517 kts | 74° |
| 2026-04-24 19:38 | 35.69972 | -99.58123 | 30312 ft | 516 kts | 75° |
| 2026-04-24 19:39 | 35.70863 | -99.53864 | 29732 ft | 513 kts | 75° |
| 2026-04-24 19:39 | 35.71734 | -99.49622 | 29112 ft | 509 kts | 76° |
| 2026-04-24 19:39 | 35.72138 | -99.45328 | 28586 ft | 503 kts | 91° |
| 2026-04-24 19:39 | 35.71985 | -99.41049 | 28049 ft | 498 kts | 95° |
| 2026-04-24 19:40 | 35.71730 | -99.36824 | 27495 ft | 494 kts | 96° |
| 2026-04-24 19:40 | 35.71471 | -99.32628 | 26952 ft | 490 kts | 96° |
| 2026-04-24 19:40 | 35.71218 | -99.28468 | 26411 ft | 486 kts | 96° |
| 2026-04-24 19:40 | 35.70970 | -99.24331 | 25873 ft | 483 kts | 95° |
| 2026-04-24 19:41 | 35.70724 | -99.20220 | 25333 ft | 480 kts | 95° |
| 2026-04-24 19:41 | 35.70480 | -99.16133 | 24801 ft | 477 kts | 95° |
| 2026-04-24 19:41 | 35.70237 | -99.12072 | 24249 ft | 475 kts | 95° |
| 2026-04-24 19:41 | 35.69994 | -99.08026 | 23718 ft | 473 kts | 96° |
| 2026-04-24 19:42 | 35.69751 | -99.03998 | 23144 ft | 471 kts | 96° |
| 2026-04-24 19:42 | 35.69508 | -98.99997 | 22563 ft | 468 kts | 96° |
| 2026-04-24 19:42 | 35.69266 | -98.96024 | 22034 ft | 463 kts | 96° |
| 2026-04-24 19:42 | 35.69026 | -98.92105 | 21622 ft | 457 kts | 96° |
| 2026-04-24 19:43 | 35.68787 | -98.88227 | 21109 ft | 453 kts | 96° |
| 2026-04-24 19:43 | 35.68552 | -98.84433 | 20583 ft | 450 kts | 96° |
| 2026-04-24 19:43 | 35.68314 | -98.80617 | 20046 ft | 447 kts | 96° |
| 2026-04-24 19:43 | 35.68076 | -98.76810 | 19488 ft | 444 kts | 96° |
| 2026-04-24 19:44 | 35.67838 | -98.73037 | 18956 ft | 442 kts | 96° |
| 2026-04-24 19:44 | 35.67601 | -98.69272 | 18402 ft | 440 kts | 96° |
| 2026-04-24 19:44 | 35.67363 | -98.65529 | 17813 ft | 437 kts | 96° |
| 2026-04-24 19:44 | 35.67127 | -98.61821 | 17244 ft | 432 kts | 96° |
| 2026-04-24 19:45 | 35.66892 | -98.58157 | 16689 ft | 426 kts | 96° |
| 2026-04-24 19:45 | 35.66659 | -98.54550 | 16149 ft | 421 kts | 96° |
| 2026-04-24 19:45 | 35.66429 | -98.50988 | 15615 ft | 415 kts | 96° |
| 2026-04-24 19:45 | 35.66200 | -98.47471 | 15111 ft | 409 kts | 95° |
| 2026-04-24 19:46 | 35.65982 | -98.44114 | 14944 ft | 378 kts | 95° |
| 2026-04-24 19:46 | 35.65780 | -98.41015 | 14786 ft | 350 kts | 96° |
| 2026-04-24 19:46 | 35.65469 | -98.38122 | 14519 ft | 338 kts | 103° |
| 2026-04-24 19:46 | 35.64943 | -98.35270 | 14157 ft | 343 kts | 105° |
| 2026-04-24 19:47 | 35.64379 | -98.32434 | 13777 ft | 341 kts | 105° |
| 2026-04-24 19:47 | 35.63823 | -98.29650 | 13608 ft | 329 kts | 105° |
| 2026-04-24 19:47 | 35.63290 | -98.26968 | 13474 ft | 317 kts | 105° |
| 2026-04-24 19:47 | 35.62775 | -98.24375 | 13320 ft | 308 kts | 105° |
| 2026-04-24 19:48 | 35.62271 | -98.21832 | 13009 ft | 305 kts | 105° |
| 2026-04-24 19:48 | 35.61770 | -98.19317 | 12710 ft | 302 kts | 105° |
| 2026-04-24 19:48 | 35.60836 | -98.14352 | 12129 ft | 295 kts | 104° |
| 2026-04-24 19:49 | 35.59946 | -98.09496 | 11556 ft | 288 kts | 103° |
| 2026-04-24 19:49 | 35.59068 | -98.04751 | 10991 ft | 282 kts | 103° |
| 2026-04-24 19:50 | 35.57647 | -97.97871 | 10139 ft | 273 kts | 109° |
| 2026-04-24 19:50 | 35.56991 | -97.95704 | 9898 ft | 269 kts | 109° |
| 2026-04-24 19:51 | 35.55624 | -97.91291 | 9298 ft | 279 kts | 109° |
| 2026-04-24 19:51 | 35.54937 | -97.89075 | 9005 ft | 277 kts | 109° |
| 2026-04-24 19:52 | 35.53570 | -97.84661 | 8413 ft | 276 kts | 109° |
| 2026-04-24 19:52 | 35.52890 | -97.82469 | 8145 ft | 275 kts | 109° |
| 2026-04-24 19:52 | 35.52216 | -97.80278 | 7843 ft | 274 kts | 109° |
| 2026-04-24 19:52 | 35.51539 | -97.78098 | 7544 ft | 272 kts | 109° |
| 2026-04-24 19:53 | 35.50871 | -97.75950 | 7327 ft | 264 kts | 109° |
| 2026-04-24 19:53 | 35.50226 | -97.73896 | 7203 ft | 252 kts | 109° |
| 2026-04-24 19:53 | 35.47954 | -97.71014 | 6958 ft | 242 kts | 160° |
| 2026-04-24 19:54 | 35.46297 | -97.70761 | 6793 ft | 239 kts | 175° |
| 2026-04-24 19:54 | 35.44640 | -97.70732 | 6551 ft | 238 kts | 177° |
| 2026-04-24 19:54 | 35.42984 | -97.70720 | 6325 ft | 235 kts | 176° |
| 2026-04-24 19:54 | 35.41380 | -97.70703 | 6216 ft | 225 kts | 176° |
| 2026-04-24 19:55 | 35.40345 | -97.70694 | 6083 ft | 216 kts | 176° |
| 2026-04-24 19:55 | 35.38387 | -97.70702 | 5758 ft | 212 kts | 176° |
| 2026-04-24 19:55 | 35.36915 | -97.70706 | 5452 ft | 210 kts | 175° |
| 2026-04-24 19:55 | 35.35483 | -97.70710 | 5205 ft | 201 kts | 176° |
| 2026-04-24 19:56 | 35.34092 | -97.70712 | 4910 ft | 201 kts | 175° |
| 2026-04-24 19:56 | 35.32693 | -97.70690 | 4615 ft | 201 kts | 173° |
| 2026-04-24 19:56 | 35.31330 | -97.70382 | 4334 ft | 198 kts | 157° |
| 2026-04-24 19:56 | 35.30146 | -97.69597 | 4070 ft | 191 kts | 138° |
| 2026-04-24 19:57 | 35.29259 | -97.68420 | 3788 ft | 187 kts | 118° |
| 2026-04-24 19:57 | 35.28839 | -97.66948 | 3587 ft | 182 kts | 93° |
| 2026-04-24 19:57 | 35.29007 | -97.65457 | 3362 ft | 177 kts | 68° |
| 2026-04-24 19:57 | 35.29672 | -97.64222 | 3132 ft | 172 kts | 47° |
| 2026-04-24 19:58 | 35.30508 | -97.63189 | 2886 ft | 171 kts | 45° |
| 2026-04-24 19:58 | 35.31362 | -97.62177 | 2662 ft | 167 kts | 45° |
| 2026-04-24 19:58 | 35.32172 | -97.61236 | 2337 ft | 158 kts | 43° |
| 2026-04-24 19:58 | 35.33074 | -97.60660 | 2222 ft | 140 kts | 15° |
| 2026-04-24 19:59 | 35.34020 | -97.60584 | 2083 ft | 134 kts | 6° |
| 2026-04-24 19:59 | 35.34947 | -97.60578 | 1892 ft | 132 kts | 4° |
| 2026-04-24 19:59 | 35.35853 | -97.60573 | 1722 ft | 130 kts | 1° |
| 2026-04-24 19:59 | 35.36756 | -97.60574 | 1570 ft | 130 kts | 0° |
| 2026-04-24 20:00 | 35.37671 | -97.60571 | 1411 ft | 131 kts | 1° |
| 2026-04-24 20:00 | 35.38555 | -97.60570 | 1300 ft | 117 kts | 360° |
| 2026-04-24 20:00 | 35.39145 | -97.60572 | 1300 ft | 46 kts | 360° |
| 2026-04-24 20:00 | 35.39243 | -97.60572 | 1299 ft | 9 kts | 359° |
| 2026-04-24 20:01 | 35.39341 | -97.60572 | 1299 ft | 17 kts | 1° |
| 2026-04-24 20:01 | 35.39487 | -97.60572 | 1295 ft | 24 kts | 0° |
| 2026-04-24 20:01 | 35.39658 | -97.60571 | 1295 ft | 23 kts | 0° |
| 2026-04-24 20:01 | 35.39738 | -97.60571 | 1296 ft | 0 kts | 360° |
| 2026-04-24 20:02 | 35.39755 | -97.60572 | 1296 ft | 8 kts | 360° |
| 2026-04-24 20:02 | 35.39856 | -97.60558 | 1296 ft | 13 kts | 22° |
| 2026-04-24 20:02 | 35.39917 | -97.60466 | 1295 ft | 15 kts | 87° |
| 2026-04-24 20:02 | 35.39837 | -97.60403 | 1295 ft | 17 kts | 175° |
| 2026-04-24 20:03 | 35.39701 | -97.60393 | 1294 ft | 22 kts | 167° |
| 2026-04-24 20:03 | 35.39579 | -97.60285 | 1297 ft | 22 kts | 134° |
| 2026-04-24 20:03 | 35.39467 | -97.60150 | 1297 ft | 23 kts | 137° |
| 2026-04-24 20:03 | 35.39430 | -97.60067 | 1299 ft | 10 kts | 85° |
| 2026-04-24 20:04 | 35.39426 | -97.59987 | 1302 ft | 9 kts | 106° |
| 2026-04-24 20:04 | 35.39418 | -97.59888 | 1303 ft | 15 kts | 92° |
| 2026-04-24 20:04 | 35.39405 | -97.59738 | 1303 ft | 21 kts | 105° |
| 2026-04-24 20:04 | 35.39383 | -97.59544 | 1304 ft | 25 kts | 90° |
| 2026-04-24 20:05 | 35.39348 | -97.59372 | 1303 ft | 20 kts | 121° |
| 2026-04-24 20:05 | 35.39355 | -97.59257 | 1301 ft | 8 kts | 36° |
| 2026-04-24 20:05 | 35.39401 | -97.59234 | 1302 ft | 7 kts | 24° |
| 2026-04-24 20:05 | 35.39454 | -97.59215 | 1303 ft | 8 kts | 6° |
| 2026-04-24 20:06 | 35.39507 | -97.59236 | 1303 ft | 8 kts | 318° |
| 2026-04-24 20:06 | 35.39516 | -97.59283 | 1303 ft | 5 kts | 265° |
| 2026-04-24 20:06 | 35.39518 | -97.59341 | 1303 ft | 8 kts | 277° |
| 2026-04-24 20:06 | 35.39520 | -97.59355 | 1303 ft | 0 kts | 277° |